sensor_id;sensor_type;location;lat;lon;timestamp;P1;durP1;ratioP1;P2;durP2;ratioP2
14074;SDS011;12831;52.392;13.066;2024-02-14T00:02:24;8.02;;;5.13;;
14074;SDS011;12831;52.392;13.066;2024-02-14T00:04:53;9.18;;;5.00;;
14074;SDS011;12831;52.392;13.066;2024-02-14T00:07:19;13.85;;;6.05;;
14074;SDS011;12831;52.392;13.066;2024-02-14T00:09:46;9.73;;;5.10;;
14074;SDS011;12831;52.392;13.066;2024-02-14T00:12:11;10.45;;;4.88;;
14074;SDS011;12831;52.392;13.066;2024-02-14T00:14:38;6.80;;;4.90;;
14074;SDS011;12831;52.392;13.066;2024-02-14T00:17:04;9.50;;;5.05;;
14074;SDS011;12831;52.392;13.066;2024-02-14T00:19:31;12.10;;;4.75;;
14074;SDS011;12831;52.392;13.066;2024-02-14T00:21:57;8.73;;;5.13;;
14074;SDS011;12831;52.392;13.066;2024-02-14T00:24:23;12.73;;;5.18;;
14074;SDS011;12831;52.392;13.066;2024-02-14T00:26:55;8.57;;;4.20;;
14074;SDS011;12831;52.392;13.066;2024-02-14T00:29:22;12.50;;;4.75;;
14074;SDS011;12831;52.392;13.066;2024-02-14T00:31:49;8.88;;;5.13;;
14074;SDS011;12831;52.392;13.066;2024-02-14T00:34:16;9.45;;;4.88;;
14074;SDS011;12831;52.392;13.066;2024-02-14T00:36:42;10.98;;;5.68;;
14074;SDS011;12831;52.392;13.066;2024-02-14T00:39:08;9.70;;;5.00;;
14074;SDS011;12831;52.392;13.066;2024-02-14T00:41:35;9.73;;;4.85;;
14074;SDS011;12831;52.392;13.066;2024-02-14T00:44:01;5.57;;;4.15;;
14074;SDS011;12831;52.392;13.066;2024-02-14T00:46:29;8.20;;;4.22;;
14074;SDS011;12831;52.392;13.066;2024-02-14T00:48:54;8.27;;;4.75;;
14074;SDS011;12831;52.392;13.066;2024-02-14T00:51:21;8.18;;;4.45;;
14074;SDS011;12831;52.392;13.066;2024-02-14T00:53:47;5.50;;;4.18;;
14074;SDS011;12831;52.392;13.066;2024-02-14T00:56:13;10.60;;;4.80;;
14074;SDS011;12831;52.392;13.066;2024-02-14T00:58:39;7.45;;;4.68;;
14074;SDS011;12831;52.392;13.066;2024-02-14T01:01:05;8.70;;;4.47;;
14074;SDS011;12831;52.392;13.066;2024-02-14T01:03:31;8.38;;;4.50;;
14074;SDS011;12831;52.392;13.066;2024-02-14T01:05:57;7.70;;;4.35;;
14074;SDS011;12831;52.392;13.066;2024-02-14T01:08:23;6.38;;;4.88;;
14074;SDS011;12831;52.392;13.066;2024-02-14T01:10:49;6.35;;;4.78;;
14074;SDS011;12831;52.392;13.066;2024-02-14T01:13:17;8.30;;;4.40;;
14074;SDS011;12831;52.392;13.066;2024-02-14T01:15:43;9.13;;;4.38;;
14074;SDS011;12831;52.392;13.066;2024-02-14T01:18:09;10.60;;;4.88;;
14074;SDS011;12831;52.392;13.066;2024-02-14T01:20:35;8.00;;;3.95;;
14074;SDS011;12831;52.392;13.066;2024-02-14T01:23:03;6.22;;;3.90;;
14074;SDS011;12831;52.392;13.066;2024-02-14T01:25:29;10.35;;;4.28;;
14074;SDS011;12831;52.392;13.066;2024-02-14T01:27:55;7.28;;;3.88;;
14074;SDS011;12831;52.392;13.066;2024-02-14T01:30:21;10.23;;;4.57;;
14074;SDS011;12831;52.392;13.066;2024-02-14T01:32:47;10.43;;;5.05;;
14074;SDS011;12831;52.392;13.066;2024-02-14T01:35:13;10.57;;;4.35;;
14074;SDS011;12831;52.392;13.066;2024-02-14T01:37:39;9.43;;;5.15;;
14074;SDS011;12831;52.392;13.066;2024-02-14T01:40:06;9.85;;;4.97;;
14074;SDS011;12831;52.392;13.066;2024-02-14T01:42:33;6.32;;;4.43;;
14074;SDS011;12831;52.392;13.066;2024-02-14T01:44:59;9.70;;;5.00;;
14074;SDS011;12831;52.392;13.066;2024-02-14T01:47:25;7.15;;;5.07;;
14074;SDS011;12831;52.392;13.066;2024-02-14T01:49:51;9.93;;;4.63;;
14074;SDS011;12831;52.392;13.066;2024-02-14T01:52:17;6.63;;;4.63;;
14074;SDS011;12831;52.392;13.066;2024-02-14T01:54:42;13.82;;;5.25;;
14074;SDS011;12831;52.392;13.066;2024-02-14T01:57:09;11.70;;;5.80;;
14074;SDS011;12831;52.392;13.066;2024-02-14T01:59:37;7.70;;;5.28;;
14074;SDS011;12831;52.392;13.066;2024-02-14T02:02:03;7.00;;;4.75;;
14074;SDS011;12831;52.392;13.066;2024-02-14T02:04:33;7.88;;;5.22;;
14074;SDS011;12831;52.392;13.066;2024-02-14T02:06:59;8.15;;;4.57;;
14074;SDS011;12831;52.392;13.066;2024-02-14T02:09:25;7.35;;;4.80;;
14074;SDS011;12831;52.392;13.066;2024-02-14T02:11:51;8.75;;;5.45;;
14074;SDS011;12831;52.392;13.066;2024-02-14T02:14:19;8.00;;;5.10;;
14074;SDS011;12831;52.392;13.066;2024-02-14T02:16:46;8.20;;;5.97;;
14074;SDS011;12831;52.392;13.066;2024-02-14T02:19:11;8.60;;;4.60;;
14074;SDS011;12831;52.392;13.066;2024-02-14T02:21:38;10.23;;;5.35;;
14074;SDS011;12831;52.392;13.066;2024-02-14T02:24:04;12.73;;;4.97;;
14074;SDS011;12831;52.392;13.066;2024-02-14T02:26:30;10.90;;;5.93;;
14074;SDS011;12831;52.392;13.066;2024-02-14T02:28:56;9.18;;;4.97;;
14074;SDS011;12831;52.392;13.066;2024-02-14T02:31:22;8.25;;;4.95;;
14074;SDS011;12831;52.392;13.066;2024-02-14T02:33:48;10.38;;;5.53;;
14074;SDS011;12831;52.392;13.066;2024-02-14T02:36:15;7.32;;;4.80;;
14074;SDS011;12831;52.392;13.066;2024-02-14T02:38:41;7.63;;;4.43;;
14074;SDS011;12831;52.392;13.066;2024-02-14T02:41:07;9.50;;;4.95;;
14074;SDS011;12831;52.392;13.066;2024-02-14T02:43:33;7.50;;;4.78;;
14074;SDS011;12831;52.392;13.066;2024-02-14T02:46:00;9.32;;;4.78;;
14074;SDS011;12831;52.392;13.066;2024-02-14T02:48:25;7.57;;;5.00;;
14074;SDS011;12831;52.392;13.066;2024-02-14T02:50:52;7.25;;;4.65;;
14074;SDS011;12831;52.392;13.066;2024-02-14T02:53:18;7.90;;;4.72;;
14074;SDS011;12831;52.392;13.066;2024-02-14T02:55:44;14.00;;;4.88;;
14074;SDS011;12831;52.392;13.066;2024-02-14T02:58:10;9.55;;;5.10;;
14074;SDS011;12831;52.392;13.066;2024-02-14T03:00:36;12.88;;;6.32;;
14074;SDS011;12831;52.392;13.066;2024-02-14T03:03:02;9.43;;;5.00;;
14074;SDS011;12831;52.392;13.066;2024-02-14T03:05:30;10.55;;;4.95;;
14074;SDS011;12831;52.392;13.066;2024-02-14T03:07:59;7.30;;;4.80;;
14074;SDS011;12831;52.392;13.066;2024-02-14T03:10:25;9.25;;;4.68;;
14074;SDS011;12831;52.392;13.066;2024-02-14T03:12:51;10.20;;;6.05;;
14074;SDS011;12831;52.392;13.066;2024-02-14T03:15:17;11.45;;;5.30;;
14074;SDS011;12831;52.392;13.066;2024-02-14T03:17:44;7.03;;;5.00;;
14074;SDS011;12831;52.392;13.066;2024-02-14T03:20:11;10.55;;;4.40;;
14074;SDS011;12831;52.392;13.066;2024-02-14T03:22:43;9.43;;;5.30;;
14074;SDS011;12831;52.392;13.066;2024-02-14T03:25:17;8.52;;;5.38;;
14074;SDS011;12831;52.392;13.066;2024-02-14T03:27:43;7.75;;;4.97;;
14074;SDS011;12831;52.392;13.066;2024-02-14T03:30:18;12.35;;;7.53;;
14074;SDS011;12831;52.392;13.066;2024-02-14T03:32:45;7.00;;;4.60;;
14074;SDS011;12831;52.392;13.066;2024-02-14T03:35:12;13.93;;;6.15;;
14074;SDS011;12831;52.392;13.066;2024-02-14T03:37:40;12.25;;;6.15;;
14074;SDS011;12831;52.392;13.066;2024-02-14T03:40:06;14.63;;;7.20;;
14074;SDS011;12831;52.392;13.066;2024-02-14T03:42:33;11.80;;;7.40;;
14074;SDS011;12831;52.392;13.066;2024-02-14T03:45:00;10.75;;;5.68;;
14074;SDS011;12831;52.392;13.066;2024-02-14T03:47:31;9.02;;;5.20;;
14074;SDS011;12831;52.392;13.066;2024-02-14T03:50:01;9.30;;;4.90;;
14074;SDS011;12831;52.392;13.066;2024-02-14T03:52:30;8.70;;;4.65;;
14074;SDS011;12831;52.392;13.066;2024-02-14T03:54:58;8.48;;;4.35;;
14074;SDS011;12831;52.392;13.066;2024-02-14T03:57:25;10.05;;;4.22;;
14074;SDS011;12831;52.392;13.066;2024-02-14T03:59:53;7.93;;;3.85;;
14074;SDS011;12831;52.392;13.066;2024-02-14T04:02:19;6.95;;;4.43;;
14074;SDS011;12831;52.392;13.066;2024-02-14T04:04:45;6.82;;;4.43;;
14074;SDS011;12831;52.392;13.066;2024-02-14T04:07:12;6.47;;;4.50;;
14074;SDS011;12831;52.392;13.066;2024-02-14T04:09:38;10.02;;;4.63;;
14074;SDS011;12831;52.392;13.066;2024-02-14T04:12:04;7.82;;;4.50;;
14074;SDS011;12831;52.392;13.066;2024-02-14T04:14:30;7.93;;;4.97;;
14074;SDS011;12831;52.392;13.066;2024-02-14T04:16:56;11.32;;;4.65;;
14074;SDS011;12831;52.392;13.066;2024-02-14T04:19:22;6.53;;;4.13;;
14074;SDS011;12831;52.392;13.066;2024-02-14T04:21:48;6.47;;;4.43;;
14074;SDS011;12831;52.392;13.066;2024-02-14T04:24:14;6.20;;;4.05;;
14074;SDS011;12831;52.392;13.066;2024-02-14T04:26:40;8.82;;;5.45;;
14074;SDS011;12831;52.392;13.066;2024-02-14T04:29:07;9.23;;;5.35;;
14074;SDS011;12831;52.392;13.066;2024-02-14T04:31:33;18.90;;;6.68;;
14074;SDS011;12831;52.392;13.066;2024-02-14T04:33:59;11.23;;;5.03;;
14074;SDS011;12831;52.392;13.066;2024-02-14T04:36:26;6.63;;;5.18;;
14074;SDS011;12831;52.392;13.066;2024-02-14T04:38:52;7.40;;;5.43;;
14074;SDS011;12831;52.392;13.066;2024-02-14T04:41:18;9.13;;;5.25;;
14074;SDS011;12831;52.392;13.066;2024-02-14T04:43:45;7.20;;;4.82;;
14074;SDS011;12831;52.392;13.066;2024-02-14T04:46:11;7.82;;;5.20;;
14074;SDS011;12831;52.392;13.066;2024-02-14T04:48:37;8.68;;;5.07;;
14074;SDS011;12831;52.392;13.066;2024-02-14T04:51:04;8.95;;;5.53;;
14074;SDS011;12831;52.392;13.066;2024-02-14T04:53:31;9.15;;;5.15;;
14074;SDS011;12831;52.392;13.066;2024-02-14T04:55:57;7.65;;;5.40;;
14074;SDS011;12831;52.392;13.066;2024-02-14T04:58:23;10.80;;;5.07;;
14074;SDS011;12831;52.392;13.066;2024-02-14T05:00:49;14.18;;;5.60;;
14074;SDS011;12831;52.392;13.066;2024-02-14T05:03:15;9.02;;;6.18;;
14074;SDS011;12831;52.392;13.066;2024-02-14T05:05:41;7.07;;;4.85;;
14074;SDS011;12831;52.392;13.066;2024-02-14T05:08:07;9.10;;;5.30;;
14074;SDS011;12831;52.392;13.066;2024-02-14T05:10:33;13.40;;;4.70;;
14074;SDS011;12831;52.392;13.066;2024-02-14T05:12:59;7.78;;;4.95;;
14074;SDS011;12831;52.392;13.066;2024-02-14T05:15:25;10.23;;;4.88;;
14074;SDS011;12831;52.392;13.066;2024-02-14T05:17:51;8.82;;;5.75;;
14074;SDS011;12831;52.392;13.066;2024-02-14T05:20:17;7.80;;;4.95;;
14074;SDS011;12831;52.392;13.066;2024-02-14T05:22:43;7.45;;;4.93;;
14074;SDS011;12831;52.392;13.066;2024-02-14T05:25:12;6.82;;;4.55;;
14074;SDS011;12831;52.392;13.066;2024-02-14T05:27:38;9.75;;;6.00;;
14074;SDS011;12831;52.392;13.066;2024-02-14T05:30:04;11.30;;;6.07;;
14074;SDS011;12831;52.392;13.066;2024-02-14T05:32:31;12.40;;;5.72;;
14074;SDS011;12831;52.392;13.066;2024-02-14T05:34:57;10.50;;;4.95;;
14074;SDS011;12831;52.392;13.066;2024-02-14T05:37:23;10.55;;;5.40;;
14074;SDS011;12831;52.392;13.066;2024-02-14T05:39:50;10.48;;;5.13;;
14074;SDS011;12831;52.392;13.066;2024-02-14T05:42:16;8.45;;;4.90;;
14074;SDS011;12831;52.392;13.066;2024-02-14T05:44:42;7.75;;;4.90;;
14074;SDS011;12831;52.392;13.066;2024-02-14T05:47:09;11.65;;;6.20;;
14074;SDS011;12831;52.392;13.066;2024-02-14T05:49:35;13.70;;;6.60;;
14074;SDS011;12831;52.392;13.066;2024-02-14T05:52:02;9.52;;;5.38;;
14074;SDS011;12831;52.392;13.066;2024-02-14T05:54:28;13.70;;;5.85;;
14074;SDS011;12831;52.392;13.066;2024-02-14T05:56:54;12.20;;;6.32;;
14074;SDS011;12831;52.392;13.066;2024-02-14T05:59:21;8.20;;;5.35;;
14074;SDS011;12831;52.392;13.066;2024-02-14T06:01:47;10.48;;;5.18;;
14074;SDS011;12831;52.392;13.066;2024-02-14T06:04:13;10.98;;;6.57;;
14074;SDS011;12831;52.392;13.066;2024-02-14T06:06:39;11.23;;;5.85;;
14074;SDS011;12831;52.392;13.066;2024-02-14T06:09:05;15.20;;;5.72;;
14074;SDS011;12831;52.392;13.066;2024-02-14T06:11:35;6.82;;;4.43;;
14074;SDS011;12831;52.392;13.066;2024-02-14T06:14:01;10.60;;;5.55;;
14074;SDS011;12831;52.392;13.066;2024-02-14T06:16:29;8.77;;;6.15;;
14074;SDS011;12831;52.392;13.066;2024-02-14T06:18:55;9.25;;;4.70;;
14074;SDS011;12831;52.392;13.066;2024-02-14T06:21:21;9.30;;;6.18;;
14074;SDS011;12831;52.392;13.066;2024-02-14T06:23:47;11.73;;;6.60;;
14074;SDS011;12831;52.392;13.066;2024-02-14T06:26:19;7.65;;;5.03;;
14074;SDS011;12831;52.392;13.066;2024-02-14T06:28:45;11.18;;;6.18;;
14074;SDS011;12831;52.392;13.066;2024-02-14T06:31:11;12.15;;;5.68;;
14074;SDS011;12831;52.392;13.066;2024-02-14T06:33:37;11.10;;;4.45;;
14074;SDS011;12831;52.392;13.066;2024-02-14T06:36:03;9.25;;;5.07;;
14074;SDS011;12831;52.392;13.066;2024-02-14T06:38:31;8.50;;;5.20;;
14074;SDS011;12831;52.392;13.066;2024-02-14T06:40:57;10.05;;;5.45;;
14074;SDS011;12831;52.392;13.066;2024-02-14T06:43:23;9.27;;;5.07;;
14074;SDS011;12831;52.392;13.066;2024-02-14T06:45:49;6.65;;;4.25;;
14074;SDS011;12831;52.392;13.066;2024-02-14T06:48:15;10.95;;;5.05;;
14074;SDS011;12831;52.392;13.066;2024-02-14T06:50:41;11.07;;;5.15;;
14074;SDS011;12831;52.392;13.066;2024-02-14T06:53:07;9.68;;;5.35;;
14074;SDS011;12831;52.392;13.066;2024-02-14T06:55:36;15.07;;;4.35;;
14074;SDS011;12831;52.392;13.066;2024-02-14T06:58:02;9.25;;;4.72;;
14074;SDS011;12831;52.392;13.066;2024-02-14T07:00:30;7.28;;;4.55;;
14074;SDS011;12831;52.392;13.066;2024-02-14T07:02:57;6.93;;;4.45;;
14074;SDS011;12831;52.392;13.066;2024-02-14T07:05:23;9.13;;;5.03;;
14074;SDS011;12831;52.392;13.066;2024-02-14T07:07:50;10.05;;;5.15;;
14074;SDS011;12831;52.392;13.066;2024-02-14T07:10:16;6.63;;;4.43;;
14074;SDS011;12831;52.392;13.066;2024-02-14T07:12:42;9.80;;;5.00;;
14074;SDS011;12831;52.392;13.066;2024-02-14T07:15:09;7.32;;;3.03;;
14074;SDS011;12831;52.392;13.066;2024-02-14T07:17:40;6.55;;;3.47;;
14074;SDS011;12831;52.392;13.066;2024-02-14T07:20:06;6.13;;;3.10;;
14074;SDS011;12831;52.392;13.066;2024-02-14T07:22:35;11.65;;;5.20;;
14074;SDS011;12831;52.392;13.066;2024-02-14T07:25:01;15.65;;;4.45;;
14074;SDS011;12831;52.392;13.066;2024-02-14T07:27:27;7.53;;;3.80;;
14074;SDS011;12831;52.392;13.066;2024-02-14T07:29:53;6.90;;;3.20;;
14074;SDS011;12831;52.392;13.066;2024-02-14T07:32:19;6.38;;;3.70;;
14074;SDS011;12831;52.392;13.066;2024-02-14T07:34:45;6.50;;;3.55;;
14074;SDS011;12831;52.392;13.066;2024-02-14T07:37:12;6.13;;;4.20;;
14074;SDS011;12831;52.392;13.066;2024-02-14T07:39:37;16.77;;;3.15;;
14074;SDS011;12831;52.392;13.066;2024-02-14T07:42:04;6.35;;;3.55;;
14074;SDS011;12831;52.392;13.066;2024-02-14T07:44:30;8.25;;;3.60;;
14074;SDS011;12831;52.392;13.066;2024-02-14T07:46:57;7.28;;;3.30;;
14074;SDS011;12831;52.392;13.066;2024-02-14T07:49:27;4.95;;;2.83;;
14074;SDS011;12831;52.392;13.066;2024-02-14T07:51:53;5.75;;;3.13;;
14074;SDS011;12831;52.392;13.066;2024-02-14T07:54:19;5.40;;;2.95;;
14074;SDS011;12831;52.392;13.066;2024-02-14T07:56:45;12.07;;;3.30;;
14074;SDS011;12831;52.392;13.066;2024-02-14T07:59:11;6.18;;;2.97;;
14074;SDS011;12831;52.392;13.066;2024-02-14T08:01:37;7.60;;;2.95;;
14074;SDS011;12831;52.392;13.066;2024-02-14T08:04:03;10.25;;;4.00;;
14074;SDS011;12831;52.392;13.066;2024-02-14T08:06:30;13.23;;;3.80;;
14074;SDS011;12831;52.392;13.066;2024-02-14T08:08:56;8.45;;;3.60;;
14074;SDS011;12831;52.392;13.066;2024-02-14T08:13:53;18.42;;;2.58;;
14074;SDS011;12831;52.392;13.066;2024-02-14T08:16:19;6.75;;;3.08;;
14074;SDS011;12831;52.392;13.066;2024-02-14T08:18:45;6.25;;;3.47;;
14074;SDS011;12831;52.392;13.066;2024-02-14T08:21:11;6.88;;;3.25;;
14074;SDS011;12831;52.392;13.066;2024-02-14T08:23:37;9.48;;;4.13;;
14074;SDS011;12831;52.392;13.066;2024-02-14T08:26:21;7.40;;;4.43;;
14074;SDS011;12831;52.392;13.066;2024-02-14T08:28:48;8.07;;;4.10;;
14074;SDS011;12831;52.392;13.066;2024-02-14T08:31:15;10.02;;;4.60;;
14074;SDS011;12831;52.392;13.066;2024-02-14T08:33:41;8.63;;;4.13;;
14074;SDS011;12831;52.392;13.066;2024-02-14T08:36:07;4.82;;;2.67;;
14074;SDS011;12831;52.392;13.066;2024-02-14T08:38:34;6.28;;;2.85;;
14074;SDS011;12831;52.392;13.066;2024-02-14T08:41:01;5.13;;;3.13;;
14074;SDS011;12831;52.392;13.066;2024-02-14T08:43:29;6.07;;;3.72;;
14074;SDS011;12831;52.392;13.066;2024-02-14T08:45:55;6.70;;;3.70;;
14074;SDS011;12831;52.392;13.066;2024-02-14T08:48:21;9.40;;;3.45;;
14074;SDS011;12831;52.392;13.066;2024-02-14T08:50:47;10.52;;;4.95;;
14074;SDS011;12831;52.392;13.066;2024-02-14T08:53:13;6.80;;;3.20;;
14074;SDS011;12831;52.392;13.066;2024-02-14T08:55:39;7.00;;;2.67;;
14074;SDS011;12831;52.392;13.066;2024-02-14T08:58:06;6.38;;;4.00;;
14074;SDS011;12831;52.392;13.066;2024-02-14T09:00:32;8.15;;;3.20;;
14074;SDS011;12831;52.392;13.066;2024-02-14T09:03:01;10.27;;;3.47;;
14074;SDS011;12831;52.392;13.066;2024-02-14T09:05:28;7.93;;;2.45;;
14074;SDS011;12831;52.392;13.066;2024-02-14T09:07:56;6.25;;;2.38;;
14074;SDS011;12831;52.392;13.066;2024-02-14T09:10:22;5.68;;;2.63;;
14074;SDS011;12831;52.392;13.066;2024-02-14T09:12:48;6.43;;;2.88;;
14074;SDS011;12831;52.392;13.066;2024-02-14T09:15:14;9.27;;;3.05;;
14074;SDS011;12831;52.392;13.066;2024-02-14T09:17:41;7.03;;;2.30;;
14074;SDS011;12831;52.392;13.066;2024-02-14T09:20:12;6.30;;;2.90;;
14074;SDS011;12831;52.392;13.066;2024-02-14T09:22:40;4.82;;;2.92;;
14074;SDS011;12831;52.392;13.066;2024-02-14T09:25:18;8.73;;;3.80;;
14074;SDS011;12831;52.392;13.066;2024-02-14T09:27:45;5.40;;;2.50;;
14074;SDS011;12831;52.392;13.066;2024-02-14T09:30:13;9.23;;;4.72;;
14074;SDS011;12831;52.392;13.066;2024-02-14T09:32:57;6.63;;;2.85;;
14074;SDS011;12831;52.392;13.066;2024-02-14T09:35:23;12.57;;;3.50;;
14074;SDS011;12831;52.392;13.066;2024-02-14T09:37:50;6.30;;;3.28;;
14074;SDS011;12831;52.392;13.066;2024-02-14T09:40:16;8.68;;;4.32;;
14074;SDS011;12831;52.392;13.066;2024-02-14T09:43:01;7.20;;;3.30;;
14074;SDS011;12831;52.392;13.066;2024-02-14T09:45:30;7.93;;;3.55;;
14074;SDS011;12831;52.392;13.066;2024-02-14T09:47:59;9.32;;;3.08;;
14074;SDS011;12831;52.392;13.066;2024-02-14T09:50:26;5.22;;;3.15;;
14074;SDS011;12831;52.392;13.066;2024-02-14T09:52:52;15.95;;;3.38;;
14074;SDS011;12831;52.392;13.066;2024-02-14T09:55:19;7.50;;;3.33;;
14074;SDS011;12831;52.392;13.066;2024-02-14T09:57:46;5.40;;;3.33;;
14074;SDS011;12831;52.392;13.066;2024-02-14T10:00:12;5.85;;;2.53;;
14074;SDS011;12831;52.392;13.066;2024-02-14T10:02:41;9.20;;;3.58;;
14074;SDS011;12831;52.392;13.066;2024-02-14T10:05:08;5.85;;;2.58;;
14074;SDS011;12831;52.392;13.066;2024-02-14T10:07:41;5.80;;;3.20;;
14074;SDS011;12831;52.392;13.066;2024-02-14T10:10:09;7.32;;;2.88;;
14074;SDS011;12831;52.392;13.066;2024-02-14T10:12:38;5.57;;;3.00;;
14074;SDS011;12831;52.392;13.066;2024-02-14T10:15:08;6.22;;;2.85;;
14074;SDS011;12831;52.392;13.066;2024-02-14T10:17:35;5.82;;;2.72;;
14074;SDS011;12831;52.392;13.066;2024-02-14T10:20:01;5.88;;;2.65;;
14074;SDS011;12831;52.392;13.066;2024-02-14T10:22:32;6.78;;;2.95;;
14074;SDS011;12831;52.392;13.066;2024-02-14T10:25:00;4.63;;;2.50;;
14074;SDS011;12831;52.392;13.066;2024-02-14T10:27:26;5.40;;;3.13;;
14074;SDS011;12831;52.392;13.066;2024-02-14T10:29:52;8.93;;;3.25;;
14074;SDS011;12831;52.392;13.066;2024-02-14T10:32:18;7.85;;;3.28;;
14074;SDS011;12831;52.392;13.066;2024-02-14T10:34:44;6.38;;;2.40;;
14074;SDS011;12831;52.392;13.066;2024-02-14T10:37:13;5.95;;;2.40;;
14074;SDS011;12831;52.392;13.066;2024-02-14T10:39:40;7.45;;;3.15;;
14074;SDS011;12831;52.392;13.066;2024-02-14T10:42:07;7.57;;;3.22;;
14074;SDS011;12831;52.392;13.066;2024-02-14T10:44:34;7.90;;;2.55;;
14074;SDS011;12831;52.392;13.066;2024-02-14T10:47:01;5.82;;;2.15;;
14074;SDS011;12831;52.392;13.066;2024-02-14T10:49:28;7.47;;;3.20;;
14074;SDS011;12831;52.392;13.066;2024-02-14T10:51:55;6.25;;;2.53;;
14074;SDS011;12831;52.392;13.066;2024-02-14T10:54:22;11.88;;;3.15;;
14074;SDS011;12831;52.392;13.066;2024-02-14T10:57:06;10.27;;;2.97;;
14074;SDS011;12831;52.392;13.066;2024-02-14T10:59:38;4.88;;;2.60;;
14074;SDS011;12831;52.392;13.066;2024-02-14T11:02:07;6.15;;;3.28;;
14074;SDS011;12831;52.392;13.066;2024-02-14T11:04:33;3.05;;;1.80;;
14074;SDS011;12831;52.392;13.066;2024-02-14T11:06:59;8.45;;;3.50;;
14074;SDS011;12831;52.392;13.066;2024-02-14T11:09:32;4.47;;;2.30;;
14074;SDS011;12831;52.392;13.066;2024-02-14T11:12:01;4.60;;;2.50;;
14074;SDS011;12831;52.392;13.066;2024-02-14T11:14:33;5.15;;;2.58;;
14074;SDS011;12831;52.392;13.066;2024-02-14T11:17:01;6.63;;;2.40;;
14074;SDS011;12831;52.392;13.066;2024-02-14T11:19:31;5.75;;;2.75;;
14074;SDS011;12831;52.392;13.066;2024-02-14T11:22:11;3.67;;;2.38;;
14074;SDS011;12831;52.392;13.066;2024-02-14T11:24:38;9.13;;;2.53;;
14074;SDS011;12831;52.392;13.066;2024-02-14T11:27:09;7.60;;;2.55;;
14074;SDS011;12831;52.392;13.066;2024-02-14T11:29:51;3.37;;;2.10;;
14074;SDS011;12831;52.392;13.066;2024-02-14T11:32:17;5.03;;;2.38;;
14074;SDS011;12831;52.392;13.066;2024-02-14T11:34:44;4.50;;;2.08;;
14074;SDS011;12831;52.392;13.066;2024-02-14T11:37:27;3.70;;;2.47;;
14074;SDS011;12831;52.392;13.066;2024-02-14T11:39:53;4.65;;;2.03;;
14074;SDS011;12831;52.392;13.066;2024-02-14T11:42:21;5.22;;;2.20;;
14074;SDS011;12831;52.392;13.066;2024-02-14T11:44:47;8.40;;;2.72;;
14074;SDS011;12831;52.392;13.066;2024-02-14T11:47:13;6.32;;;2.75;;
14074;SDS011;12831;52.392;13.066;2024-02-14T11:49:39;9.23;;;3.17;;
14074;SDS011;12831;52.392;13.066;2024-02-14T11:52:09;4.63;;;2.65;;
14074;SDS011;12831;52.392;13.066;2024-02-14T11:54:35;4.43;;;2.25;;
14074;SDS011;12831;52.392;13.066;2024-02-14T11:57:01;4.80;;;2.88;;
14074;SDS011;12831;52.392;13.066;2024-02-14T11:59:28;4.63;;;2.03;;
14074;SDS011;12831;52.392;13.066;2024-02-14T12:01:56;7.70;;;2.42;;
14074;SDS011;12831;52.392;13.066;2024-02-14T12:04:23;4.93;;;2.38;;
14074;SDS011;12831;52.392;13.066;2024-02-14T12:06:49;5.38;;;2.50;;
14074;SDS011;12831;52.392;13.066;2024-02-14T12:09:16;3.55;;;1.98;;
14074;SDS011;12831;52.392;13.066;2024-02-14T12:11:42;8.07;;;2.40;;
14074;SDS011;12831;52.392;13.066;2024-02-14T12:14:11;5.43;;;2.30;;
14074;SDS011;12831;52.392;13.066;2024-02-14T12:16:38;4.15;;;2.03;;
14074;SDS011;12831;52.392;13.066;2024-02-14T12:21:35;5.63;;;2.75;;
14074;SDS011;12831;52.392;13.066;2024-02-14T12:24:02;3.33;;;1.65;;
14074;SDS011;12831;52.392;13.066;2024-02-14T12:26:30;4.60;;;2.28;;
14074;SDS011;12831;52.392;13.066;2024-02-14T12:28:57;3.63;;;2.38;;
14074;SDS011;12831;52.392;13.066;2024-02-14T12:31:23;6.55;;;2.47;;
14074;SDS011;12831;52.392;13.066;2024-02-14T12:33:50;6.63;;;2.75;;
14074;SDS011;12831;52.392;13.066;2024-02-14T12:36:19;6.65;;;2.53;;
14074;SDS011;12831;52.392;13.066;2024-02-14T12:38:46;5.00;;;2.15;;
14074;SDS011;12831;52.392;13.066;2024-02-14T12:41:12;5.22;;;2.40;;
14074;SDS011;12831;52.392;13.066;2024-02-14T12:43:38;6.13;;;2.40;;
14074;SDS011;12831;52.392;13.066;2024-02-14T12:46:05;7.38;;;2.38;;
14074;SDS011;12831;52.392;13.066;2024-02-14T12:48:31;8.95;;;2.67;;
14074;SDS011;12831;52.392;13.066;2024-02-14T12:50:58;7.45;;;2.20;;
14074;SDS011;12831;52.392;13.066;2024-02-14T12:53:24;8.30;;;2.63;;
14074;SDS011;12831;52.392;13.066;2024-02-14T12:55:56;5.38;;;2.80;;
14074;SDS011;12831;52.392;13.066;2024-02-14T12:58:22;6.45;;;3.25;;
14074;SDS011;12831;52.392;13.066;2024-02-14T13:00:48;4.78;;;2.63;;
14074;SDS011;12831;52.392;13.066;2024-02-14T13:03:14;3.03;;;1.98;;
14074;SDS011;12831;52.392;13.066;2024-02-14T13:05:43;5.78;;;2.67;;
14074;SDS011;12831;52.392;13.066;2024-02-14T13:08:10;5.60;;;2.20;;
14074;SDS011;12831;52.392;13.066;2024-02-14T13:10:37;3.97;;;2.10;;
14074;SDS011;12831;52.392;13.066;2024-02-14T13:13:04;4.57;;;2.28;;
14074;SDS011;12831;52.392;13.066;2024-02-14T13:15:30;8.32;;;2.85;;
14074;SDS011;12831;52.392;13.066;2024-02-14T13:17:56;7.47;;;2.63;;
14074;SDS011;12831;52.392;13.066;2024-02-14T13:20:25;8.13;;;2.90;;
14074;SDS011;12831;52.392;13.066;2024-02-14T13:22:51;4.28;;;2.10;;
14074;SDS011;12831;52.392;13.066;2024-02-14T13:25:17;5.18;;;2.35;;
14074;SDS011;12831;52.392;13.066;2024-02-14T13:27:44;12.05;;;3.80;;
14074;SDS011;12831;52.392;13.066;2024-02-14T13:30:10;8.00;;;2.35;;
14074;SDS011;12831;52.392;13.066;2024-02-14T13:32:37;5.10;;;2.50;;
14074;SDS011;12831;52.392;13.066;2024-02-14T13:35:03;6.28;;;2.28;;
14074;SDS011;12831;52.392;13.066;2024-02-14T13:37:32;4.55;;;2.30;;
14074;SDS011;12831;52.392;13.066;2024-02-14T13:39:58;5.20;;;2.95;;
14074;SDS011;12831;52.392;13.066;2024-02-14T13:42:24;6.05;;;2.22;;
14074;SDS011;12831;52.392;13.066;2024-02-14T13:44:52;5.68;;;2.92;;
14074;SDS011;12831;52.392;13.066;2024-02-14T13:47:20;4.05;;;2.40;;
14074;SDS011;12831;52.392;13.066;2024-02-14T13:49:46;5.85;;;2.65;;
14074;SDS011;12831;52.392;13.066;2024-02-14T13:52:12;5.03;;;3.20;;
14074;SDS011;12831;52.392;13.066;2024-02-14T13:54:38;7.03;;;2.65;;
14074;SDS011;12831;52.392;13.066;2024-02-14T13:57:04;5.28;;;2.33;;
14074;SDS011;12831;52.392;13.066;2024-02-14T13:59:30;11.27;;;3.22;;
14074;SDS011;12831;52.392;13.066;2024-02-14T14:01:58;7.13;;;2.15;;
14074;SDS011;12831;52.392;13.066;2024-02-14T14:04:23;5.82;;;2.20;;
14074;SDS011;12831;52.392;13.066;2024-02-14T14:06:51;6.15;;;2.70;;
14074;SDS011;12831;52.392;13.066;2024-02-14T14:09:17;5.28;;;2.22;;
14074;SDS011;12831;52.392;13.066;2024-02-14T14:11:43;5.97;;;2.17;;
14074;SDS011;12831;52.392;13.066;2024-02-14T14:14:09;5.60;;;2.40;;
14074;SDS011;12831;52.392;13.066;2024-02-14T14:16:41;7.75;;;2.97;;
14074;SDS011;12831;52.392;13.066;2024-02-14T14:19:09;7.38;;;2.83;;
14074;SDS011;12831;52.392;13.066;2024-02-14T14:21:35;5.20;;;2.33;;
14074;SDS011;12831;52.392;13.066;2024-02-14T14:24:04;6.22;;;3.05;;
14074;SDS011;12831;52.392;13.066;2024-02-14T14:26:46;6.72;;;3.00;;
14074;SDS011;12831;52.392;13.066;2024-02-14T14:29:12;4.15;;;2.47;;
14074;SDS011;12831;52.392;13.066;2024-02-14T14:31:40;6.22;;;2.60;;
14074;SDS011;12831;52.392;13.066;2024-02-14T14:34:06;6.32;;;2.40;;
14074;SDS011;12831;52.392;13.066;2024-02-14T14:36:33;7.20;;;2.72;;